Time;durP1;ratioP1;P1;durP2;ratioP2;P2;SDS_P1;SDS_P2;PMS_P1;PMS_P2;Temp;Humidity;BMP_temperature;BMP_pressure;BME280_temperature;BME280_humidity;BME280_pressure;Samples;Min_cycle;Max_cycle;Signal;HPM_P1;HPM_P2
2023/08/30 00:00:07;;;;;;;0.10;0.10;;;13.30;99.90;;;;;;5050450;28;20214;-80
2023/08/30 00:02:34;;;;;;;0.10;0.10;;;13.20;99.90;;;;;;5049891;28;20299;-80
2023/08/30 00:05:00;;;;;;;0.20;0.20;;;13.10;99.90;;;;;;5051956;28;20434;-81
2023/08/30 00:07:26;;;;;;;0.10;0.10;;;13.00;99.90;;;;;;5046383;28;20519;-81
2023/08/30 00:09:51;;;;;;;0.10;0.10;;;13.00;99.90;;;;;;5048798;28;20819;-80
2023/08/30 00:12:17;;;;;;;0.10;0.10;;;13.00;99.90;;;;;;5052080;28;20432;-80
2023/08/30 00:14:42;;;;;;;0.10;0.10;;;13.00;99.90;;;;;;5051018;28;20270;-81
2023/08/30 00:17:09;;;;;;;0.10;0.10;;;12.90;99.90;;;;;;5050144;28;20249;-81
2023/08/30 00:19:34;;;;;;;0.10;0.10;;;12.90;99.90;;;;;;5048301;28;20234;-80
2023/08/30 00:22:00;;;;;;;0.10;0.10;;;12.80;99.90;;;;;;5050647;28;20495;-81
2023/08/30 00:24:26;;;;;;;0.10;0.10;;;12.80;99.90;;;;;;5048083;28;20672;-80
2023/08/30 00:26:51;;;;;;;0.10;0.10;;;12.70;99.90;;;;;;5050699;28;20722;-81
2023/08/30 00:29:17;;;;;;;0.20;0.20;;;12.80;99.90;;;;;;5047282;28;20183;-80
2023/08/30 00:31:42;;;;;;;0.10;0.10;;;12.70;99.90;;;;;;5047178;28;20186;-80
2023/08/30 00:34:08;;;;;;;0.10;0.10;;;12.70;99.90;;;;;;5046464;28;20231;-81
2023/08/30 00:36:33;;;;;;;0.20;0.20;;;12.70;99.90;;;;;;5049783;28;20585;-80
2023/08/30 00:38:59;;;;;;;0.10;0.10;;;12.60;99.90;;;;;;5051716;28;20191;-81
2023/08/30 00:41:24;;;;;;;0.10;0.10;;;12.90;99.90;;;;;;5038158;28;20260;-80
2023/08/30 00:43:50;;;;;;;0.10;0.10;;;12.90;99.90;;;;;;5047719;28;20202;-80
2023/08/30 00:46:16;;;;;;;0.20;0.10;;;12.80;99.90;;;;;;5046974;28;20193;-81
2023/08/30 00:48:42;;;;;;;0.20;0.20;;;12.60;99.90;;;;;;5049053;28;20195;-80
2023/08/30 00:51:07;;;;;;;0.10;0.10;;;12.60;99.90;;;;;;5047464;28;20183;-81
2023/08/30 00:53:33;;;;;;;0.10;0.10;;;12.50;99.90;;;;;;5049794;28;20477;-80
2023/08/30 00:55:59;;;;;;;0.10;0.10;;;12.50;99.90;;;;;;5049356;28;20268;-81
2023/08/30 00:58:26;;;;;;;0.10;0.10;;;12.50;99.90;;;;;;5047779;28;20331;-80
2023/08/30 01:00:52;;;;;;;0.10;0.10;;;12.40;99.90;;;;;;5045370;28;20472;-81
2023/08/30 01:03:20;;;;;;;0.10;0.10;;;12.60;99.90;;;;;;5047330;28;20548;-80
2023/08/30 01:05:45;;;;;;;0.10;0.10;;;12.60;99.90;;;;;;5047794;28;20812;-81
2023/08/30 01:08:11;;;;;;;0.20;0.20;;;12.50;99.90;;;;;;5048878;28;20959;-81
2023/08/30 01:10:43;;;;;;;0.10;0.10;;;12.50;99.90;;;;;;5050280;28;20195;-80
2023/08/30 01:13:11;;;;;;;0.10;0.10;;;12.40;99.90;;;;;;5048533;28;20210;-80
2023/08/30 01:15:39;;;;;;;0.10;0.10;;;12.40;99.90;;;;;;5048603;28;20437;-80
2023/08/30 01:18:06;;;;;;;0.10;0.10;;;12.40;99.90;;;;;;5048568;28;20445;-81
2023/08/30 01:20:37;;;;;;;0.10;0.10;;;12.30;99.90;;;;;;5047799;28;20582;-81
2023/08/30 01:23:40;;;;;;;0.20;0.20;;;12.30;99.90;;;;;;5045760;28;20445;-81
2023/08/30 01:26:11;;;;;;;0.10;0.10;;;12.40;99.90;;;;;;5049308;28;20940;-80
2023/08/30 01:28:37;;;;;;;0.10;0.10;;;12.30;99.90;;;;;;5048209;28;20444;-81
2023/08/30 01:31:04;;;;;;;0.10;0.10;;;12.30;99.90;;;;;;5048905;28;20528;-81
2023/08/30 01:33:31;;;;;;;0.20;0.20;;;12.30;99.90;;;;;;5047350;28;21251;-81
2023/08/30 01:35:59;;;;;;;0.20;0.20;;;12.30;99.90;;;;;;5047213;28;20937;-81
2023/08/30 01:38:28;;;;;;;0.10;0.10;;;12.20;99.90;;;;;;5049357;28;20457;-80
2023/08/30 01:40:54;;;;;;;0.10;0.10;;;12.30;99.90;;;;;;5046922;28;20499;-80
2023/08/30 01:43:21;;;;;;;0.10;0.10;;;12.40;99.90;;;;;;5046774;28;20459;-81
2023/08/30 01:45:47;;;;;;;0.10;0.10;;;12.30;99.90;;;;;;5046523;28;20441;-81
2023/08/30 01:48:17;;;;;;;0.10;0.10;;;12.30;99.90;;;;;;5047992;28;20451;-81
2023/08/30 01:50:44;;;;;;;0.10;0.10;;;12.30;99.90;;;;;;5044049;28;20999;-81
2023/08/30 01:53:12;;;;;;;0.10;0.10;;;12.20;99.90;;;;;;5044764;28;20477;-81
2023/08/30 01:55:38;;;;;;;0.20;0.20;;;12.10;99.90;;;;;;5045845;28;20449;-80
2023/08/30 01:58:05;;;;;;;0.10;0.10;;;12.10;99.90;;;;;;5049210;28;20514;-81
2023/08/30 02:00:30;;;;;;;0.20;0.20;;;12.00;99.90;;;;;;5047231;28;20484;-81
2023/08/30 02:02:57;;;;;;;0.10;0.10;;;11.90;99.90;;;;;;5049975;28;20432;-81
2023/08/30 02:05:22;;;;;;;0.10;0.10;;;12.00;99.90;;;;;;5042401;28;20199;-81
2023/08/30 02:08:16;;;;;;;0.20;0.20;;;12.10;99.90;;;;;;5039501;28;20484;-81
2023/08/30 02:10:51;;;;;;;0.20;0.20;;;12.10;99.90;;;;;;5038447;28;20207;-81
2023/08/30 02:13:21;;;;;;;0.10;0.10;;;12.10;99.90;;;;;;5048926;28;20853;-81
2023/08/30 02:15:46;;;;;;;0.10;0.10;;;12.20;99.90;;;;;;5045913;28;20809;-80
2023/08/30 02:18:12;;;;;;;0.10;0.10;;;12.10;99.90;;;;;;5046558;28;20446;-81
2023/08/30 02:20:38;;;;;;;0.10;0.10;;;12.10;99.90;;;;;;5039683;28;20480;-80
2023/08/30 02:23:03;;;;;;;0.10;0.10;;;12.10;99.90;;;;;;5049615;28;20542;-81
2023/08/30 02:25:29;;;;;;;0.10;0.10;;;12.40;99.90;;;;;;5046436;28;20727;-81
2023/08/30 02:27:54;;;;;;;0.10;0.10;;;12.70;99.90;;;;;;5044325;28;20599;-81
2023/08/30 02:30:20;;;;;;;0.20;0.20;;;12.90;99.90;;;;;;5047531;28;20261;-80
2023/08/30 02:32:45;;;;;;;0.10;0.10;;;13.00;99.90;;;;;;5047248;28;20224;-80
2023/08/30 02:35:11;;;;;;;0.20;0.20;;;12.90;99.90;;;;;;5046913;28;20557;-81
2023/08/30 02:37:36;;;;;;;0.10;0.10;;;13.00;99.90;;;;;;5047297;28;20187;-81
2023/08/30 02:40:02;;;;;;;0.10;0.10;;;13.00;99.90;;;;;;5048824;28;20210;-80
2023/08/30 02:42:28;;;;;;;0.10;0.10;;;13.20;99.90;;;;;;5047499;28;20187;-81
2023/08/30 02:44:54;;;;;;;0.10;0.10;;;13.20;99.90;;;;;;5050125;28;20225;-81
2023/08/30 02:47:19;;;;;;;0.10;0.10;;;13.20;99.90;;;;;;5044982;28;20201;-81
2023/08/30 02:49:45;;;;;;;0.10;0.10;;;13.20;99.90;;;;;;5049826;28;20555;-81
2023/08/30 02:52:10;;;;;;;0.20;0.20;;;13.20;99.90;;;;;;5049735;28;20215;-81
2023/08/30 02:54:36;;;;;;;0.20;0.20;;;13.20;99.90;;;;;;5049943;28;20187;-81
2023/08/30 02:57:01;;;;;;;0.10;0.10;;;13.10;99.90;;;;;;5044916;28;20643;-81
2023/08/30 02:59:27;;;;;;;0.13;0.13;;;13.10;99.90;;;;;;5049593;28;20182;-81
2023/08/30 03:01:52;;;;;;;0.20;0.20;;;13.00;99.90;;;;;;5042276;28;20253;-81
2023/08/30 03:04:18;;;;;;;0.17;0.17;;;12.90;99.90;;;;;;5046957;28;20252;-81
2023/08/30 03:06:43;;;;;;;0.10;0.10;;;12.90;99.90;;;;;;5047325;28;20191;-81
2023/08/30 03:09:09;;;;;;;0.20;0.20;;;12.90;99.90;;;;;;5046635;28;20233;-81
2023/08/30 03:11:35;;;;;;;0.10;0.10;;;12.90;99.90;;;;;;5048839;28;20210;-81
2023/08/30 03:14:00;;;;;;;0.20;0.20;;;12.90;99.90;;;;;;5039323;28;20266;-81
2023/08/30 03:16:25;;;;;;;0.10;0.10;;;12.90;99.90;;;;;;5043355;28;20683;-81
2023/08/30 03:18:51;;;;;;;0.10;0.10;;;13.00;99.90;;;;;;5047471;28;20183;-80
2023/08/30 03:21:17;;;;;;;0.20;0.20;;;13.00;99.90;;;;;;5047240;28;20276;-81
2023/08/30 03:23:42;;;;;;;0.20;0.20;;;12.90;99.90;;;;;;5050601;28;20181;-81
2023/08/30 03:26:11;;;;;;;0.10;0.10;;;13.00;99.90;;;;;;5052497;28;20183;-81
2023/08/30 03:28:38;;;;;;;0.20;0.20;;;13.00;99.90;;;;;;5050040;28;20210;-81
2023/08/30 03:31:19;;;;;;;0.10;0.10;;;13.10;99.90;;;;;;5049928;28;20440;-81
2023/08/30 03:33:46;;;;;;;0.10;0.10;;;13.10;99.90;;;;;;5049010;28;20477;-81
2023/08/30 03:36:14;;;;;;;0.10;0.10;;;13.10;99.90;;;;;;5050307;28;20436;-80
2023/08/30 03:38:39;;;;;;;0.20;0.20;;;13.00;99.90;;;;;;5050132;28;20502;-81
2023/08/30 03:41:05;;;;;;;0.20;0.20;;;12.90;99.90;;;;;;5051714;28;20861;-81
2023/08/30 03:43:31;;;;;;;0.17;0.17;;;12.90;99.90;;;;;;5050599;28;20198;-81
2023/08/30 03:45:59;;;;;;;0.20;0.20;;;12.80;99.90;;;;;;5048412;28;20183;-81
2023/08/30 03:48:24;;;;;;;0.10;0.10;;;12.80;99.90;;;;;;5048985;28;20481;-81
2023/08/30 03:50:50;;;;;;;0.10;0.10;;;12.90;99.90;;;;;;5049362;28;20507;-81
2023/08/30 03:53:15;;;;;;;0.10;0.10;;;12.80;99.90;;;;;;5050241;28;20186;-81
2023/08/30 03:55:41;;;;;;;0.20;0.20;;;12.90;99.90;;;;;;5048838;28;20554;-81
2023/08/30 03:58:07;;;;;;;0.10;0.10;;;12.90;99.90;;;;;;5049683;28;20190;-81
2023/08/30 04:00:35;;;;;;;0.10;0.10;;;13.00;99.90;;;;;;5048034;28;20249;-80
2023/08/30 04:03:01;;;;;;;0.10;0.10;;;13.00;99.90;;;;;;5044385;28;20217;-80
2023/08/30 04:05:26;;;;;;;0.10;0.10;;;13.00;99.90;;;;;;5051878;28;20414;-81
2023/08/30 04:07:52;;;;;;;0.10;0.10;;;13.00;99.90;;;;;;5049244;28;20232;-81
2023/08/30 04:10:17;;;;;;;0.10;0.10;;;13.00;99.90;;;;;;5047537;28;20182;-81
2023/08/30 04:12:43;;;;;;;0.20;0.20;;;13.10;99.90;;;;;;5051330;28;20186;-81
2023/08/30 04:15:10;;;;;;;0.10;0.10;;;13.00;99.90;;;;;;5050418;28;20186;-80
2023/08/30 04:17:35;;;;;;;0.20;0.20;;;13.00;99.90;;;;;;5049055;28;20183;-81
2023/08/30 04:20:01;;;;;;;0.10;0.10;;;13.00;99.90;;;;;;5049422;28;20485;-80
2023/08/30 04:22:26;;;;;;;0.10;0.10;;;13.00;99.90;;;;;;5051867;28;20186;-81
2023/08/30 04:24:52;;;;;;;0.10;0.10;;;13.00;99.90;;;;;;5049340;28;20197;-81
2023/08/30 04:27:17;;;;;;;0.10;0.10;;;13.10;99.90;;;;;;5050905;28;20312;-81
2023/08/30 04:29:45;;;;;;;0.10;0.10;;;13.10;99.90;;;;;;5050121;28;20206;-80
2023/08/30 04:32:11;;;;;;;0.10;0.10;;;13.10;99.90;;;;;;5047182;28;20959;-79
2023/08/30 04:34:36;;;;;;;0.10;0.10;;;13.10;99.90;;;;;;5049857;28;20485;-81
2023/08/30 04:37:03;;;;;;;0.10;0.10;;;13.10;99.90;;;;;;5048380;28;20530;-81
2023/08/30 04:39:28;;;;;;;0.10;0.10;;;13.10;99.90;;;;;;5050308;28;20171;-80
2023/08/30 04:41:54;;;;;;;0.10;0.10;;;13.10;99.90;;;;;;5049898;28;20460;-81
2023/08/30 04:44:24;;;;;;;0.10;0.10;;;13.10;99.90;;;;;;5047334;28;20213;-82
2023/08/30 04:46:49;;;;;;;0.10;0.10;;;13.20;99.90;;;;;;5049250;28;20229;-80
2023/08/30 04:49:15;;;;;;;0.20;0.20;;;13.20;99.90;;;;;;5050581;28;20480;-81
2023/08/30 04:51:40;;;;;;;0.10;0.10;;;13.20;99.90;;;;;;5048306;28;20179;-81
2023/08/30 04:54:06;;;;;;;0.10;0.10;;;13.30;99.90;;;;;;5048532;28;20336;-80
2023/08/30 04:56:31;;;;;;;0.10;0.10;;;13.30;99.90;;;;;;5050203;28;20190;-81
2023/08/30 04:58:57;;;;;;;0.10;0.10;;;13.30;99.90;;;;;;5046430;28;20609;-80
2023/08/30 05:01:23;;;;;;;0.10;0.10;;;13.40;99.90;;;;;;5047655;28;20325;-80
2023/08/30 05:03:48;;;;;;;0.10;0.10;;;13.30;99.90;;;;;;5046310;28;20600;-80
2023/08/30 05:06:16;;;;;;;0.10;0.10;;;13.40;99.90;;;;;;5045682;28;20658;-80
2023/08/30 05:08:41;;;;;;;0.10;0.10;;;13.40;99.90;;;;;;5048494;28;20175;-80
2023/08/30 05:11:08;;;;;;;0.17;0.17;;;13.40;99.90;;;;;;5047187;28;20448;-81
2023/08/30 05:13:34;;;;;;;0.10;0.10;;;13.40;99.90;;;;;;5043552;28;21141;-82
2023/08/30 05:15:59;;;;;;;0.10;0.10;;;13.40;99.90;;;;;;5047749;28;20453;-81
2023/08/30 05:18:25;;;;;;;0.10;0.10;;;13.50;99.90;;;;;;5056327;28;20243;-82
2023/08/30 05:20:50;;;;;;;0.10;0.10;;;13.50;99.90;;;;;;5046609;28;20218;-82
2023/08/30 05:23:16;;;;;;;0.10;0.10;;;13.50;99.90;;;;;;5059943;28;20194;-81
2023/08/30 05:25:41;;;;;;;0.10;0.10;;;13.60;99.90;;;;;;5048432;28;20189;-81
2023/08/30 05:28:07;;;;;;;0.10;0.10;;;13.60;99.90;;;;;;5048232;28;20239;-81
2023/08/30 05:30:32;;;;;;;0.10;0.10;;;13.60;99.90;;;;;;5046440;28;20210;-82
2023/08/30 05:32:58;;;;;;;0.10;0.10;;;13.60;99.90;;;;;;5047119;28;20617;-83
2023/08/30 05:35:23;;;;;;;0.10;0.10;;;13.60;99.90;;;;;;5046916;28;20198;-82
2023/08/30 05:37:50;;;;;;;0.10;0.10;;;13.70;99.90;;;;;;5045214;28;20193;-81
2023/08/30 05:40:17;;;;;;;0.13;0.13;;;13.70;99.90;;;;;;5046553;28;20908;-82
2023/08/30 05:42:42;;;;;;;0.10;0.10;;;13.70;99.90;;;;;;5047056;28;20971;-82
2023/08/30 05:45:08;;;;;;;0.10;0.10;;;13.80;99.90;;;;;;5046287;28;20449;-82
2023/08/30 05:47:34;;;;;;;0.10;0.10;;;13.80;99.90;;;;;;5047004;28;20916;-82
2023/08/30 05:49:59;;;;;;;0.10;0.10;;;13.90;99.90;;;;;;5050097;28;20220;-82
2023/08/30 05:52:25;;;;;;;0.10;0.10;;;13.80;99.90;;;;;;5044110;28;20179;-82
2023/08/30 05:54:51;;;;;;;0.10;0.10;;;13.90;99.90;;;;;;5054837;28;20267;-83
2023/08/30 05:57:16;;;;;;;0.10;0.10;;;13.80;99.90;;;;;;5040039;28;20186;-82
2023/08/30 05:59:43;;;;;;;0.10;0.10;;;13.80;99.90;;;;;;5045006;28;20261;-83
2023/08/30 06:02:08;;;;;;;0.10;0.10;;;13.80;99.90;;;;;;5047609;28;20226;-82
2023/08/30 06:04:34;;;;;;;0.10;0.10;;;13.90;99.90;;;;;;5047445;28;20473;-82
2023/08/30 06:06:59;;;;;;;0.10;0.10;;;13.90;99.90;;;;;;5049726;28;20190;-82
2023/08/30 06:09:25;;;;;;;0.10;0.10;;;14.00;99.90;;;;;;5046734;28;20201;-83
2023/08/30 06:11:50;;;;;;;0.10;0.10;;;14.00;99.90;;;;;;5047869;28;20198;-82
2023/08/30 06:14:16;;;;;;;0.10;0.10;;;14.00;99.90;;;;;;5048340;28;20213;-82
2023/08/30 06:16:44;;;;;;;0.10;0.10;;;14.00;99.90;;;;;;5046717;28;20281;-82
2023/08/30 06:19:12;;;;;;;0.10;0.10;;;14.10;99.90;;;;;;5037969;28;20188;-82
2023/08/30 06:21:38;;;;;;;0.10;0.10;;;14.10;99.90;;;;;;5048133;28;20858;-82
2023/08/30 06:24:04;;;;;;;0.10;0.10;;;14.10;99.90;;;;;;5046740;28;20452;-82
2023/08/30 06:26:29;;;;;;;0.10;0.10;;;14.20;99.90;;;;;;5046599;28;20201;-82
2023/08/30 06:28:55;;;;;;;0.10;0.10;;;14.20;99.90;;;;;;5043792;28;20175;-82
2023/08/30 06:31:22;;;;;;;0.10;0.10;;;14.30;99.90;;;;;;5040575;28;20875;-83
2023/08/30 06:33:48;;;;;;;0.10;0.10;;;14.40;99.90;;;;;;5045412;28;20223;-83
2023/08/30 06:36:15;;;;;;;0.10;0.10;;;14.60;99.90;;;;;;5046210;28;20444;-82
2023/08/30 06:38:41;;;;;;;0.10;0.10;;;14.70;99.90;;;;;;5042353;28;20437;-83
2023/08/30 06:41:07;;;;;;;0.10;0.10;;;14.80;99.90;;;;;;5039540;28;21024;-81
2023/08/30 06:43:32;;;;;;;0.10;0.10;;;14.90;99.90;;;;;;5037061;28;21072;-81
2023/08/30 06:45:59;;;;;;;0.10;0.10;;;15.00;99.90;;;;;;5041395;28;20718;-83
2023/08/30 06:48:25;;;;;;;0.10;0.10;;;15.20;99.90;;;;;;5046609;28;20191;-83
2023/08/30 06:50:50;;;;;;;0.10;0.10;;;15.20;99.90;;;;;;5044176;28;20451;-82
2023/08/30 06:53:16;;;;;;;0.10;0.10;;;15.30;99.90;;;;;;5048292;28;20190;-82
2023/08/30 06:55:41;;;;;;;0.10;0.10;;;15.40;99.90;;;;;;5043493;28;20340;-83
2023/08/30 06:58:07;;;;;;;0.10;0.10;;;15.40;99.90;;;;;;5049034;28;20677;-84
2023/08/30 07:00:32;;;;;;;0.10;0.10;;;15.40;99.90;;;;;;5047524;28;20222;-84
2023/08/30 07:02:58;;;;;;;0.10;0.10;;;15.50;99.90;;;;;;5051156;28;20233;-82
2023/08/30 07:05:24;;;;;;;0.10;0.10;;;15.50;99.90;;;;;;5046935;28;20195;-83
2023/08/30 07:07:49;;;;;;;0.10;0.10;;;15.60;99.90;;;;;;5048581;28;20245;-83
2023/08/30 07:10:15;;;;;;;0.10;0.10;;;15.60;99.90;;;;;;5050003;28;20232;-85
2023/08/30 07:12:40;;;;;;;0.10;0.10;;;15.70;99.90;;;;;;5049112;28;20271;-83
2023/08/30 07:15:06;;;;;;;0.10;0.10;;;15.80;99.90;;;;;;5048257;28;20178;-85
2023/08/30 07:17:32;;;;;;;0.10;0.10;;;15.90;99.90;;;;;;5040936;28;20182;-82
2023/08/30 07:19:57;;;;;;;0.10;0.10;;;15.90;99.90;;;;;;5052261;28;20576;-82
2023/08/30 07:22:23;;;;;;;0.10;0.10;;;16.00;99.90;;;;;;5044128;28;20187;-81
2023/08/30 07:24:49;;;;;;;0.10;0.10;;;16.10;99.90;;;;;;5047376;28;20188;-82
2023/08/30 07:27:14;;;;;;;0.10;0.10;;;16.10;99.90;;;;;;5056157;28;20193;-81
2023/08/30 07:29:40;;;;;;;0.10;0.10;;;16.20;99.90;;;;;;5052432;28;20209;-80
2023/08/30 07:32:07;;;;;;;0.10;0.10;;;16.50;99.90;;;;;;5052723;28;20214;-81
2023/08/30 07:34:32;;;;;;;0.10;0.10;;;16.60;99.90;;;;;;5048982;28;20480;-82
2023/08/30 07:36:58;;;;;;;0.10;0.10;;;16.80;99.90;;;;;;5052563;28;20452;-81
2023/08/30 07:39:23;;;;;;;0.10;0.10;;;16.80;99.90;;;;;;5055251;28;20225;-83
2023/08/30 07:41:49;;;;;;;0.10;0.10;;;16.90;99.90;;;;;;5054166;28;20242;-83
2023/08/30 07:44:15;;;;;;;0.10;0.10;;;16.90;99.90;;;;;;5050528;28;20189;-82
2023/08/30 07:46:40;;;;;;;0.10;0.10;;;17.00;99.90;;;;;;5060271;28;20194;-82
2023/08/30 07:49:06;;;;;;;0.10;0.10;;;17.00;99.90;;;;;;5058441;28;21015;-81
2023/08/30 07:51:31;;;;;;;0.10;0.10;;;17.10;99.90;;;;;;5049733;28;20686;-81
2023/08/30 07:53:57;;;;;;;0.10;0.10;;;17.10;99.90;;;;;;5051086;28;20238;-83
2023/08/30 07:56:22;;;;;;;0.10;0.10;;;17.00;99.90;;;;;;5048513;28;20199;-81
2023/08/30 07:58:48;;;;;;;0.10;0.10;;;17.10;99.90;;;;;;5050362;28;20575;-83
2023/08/30 08:01:14;;;;;;;0.10;0.10;;;17.20;99.90;;;;;;5051391;28;20309;-84
2023/08/30 08:03:41;;;;;;;0.10;0.10;;;17.20;99.90;;;;;;5040544;28;20282;-83
2023/08/30 08:06:06;;;;;;;0.10;0.10;;;17.30;99.90;;;;;;5047991;28;20232;-83
2023/08/30 08:08:32;;;;;;;0.10;0.10;;;17.40;99.90;;;;;;5043870;28;20449;-84
2023/08/30 08:10:59;;;;;;;0.10;0.10;;;17.40;99.90;;;;;;5044299;28;20665;-83
2023/08/30 08:13:25;;;;;;;0.10;0.10;;;17.60;99.90;;;;;;5046691;28;20224;-84
2023/08/30 08:15:51;;;;;;;0.10;0.10;;;17.70;99.90;;;;;;5045523;28;20522;-84
2023/08/30 08:18:16;;;;;;;0.10;0.10;;;17.70;99.90;;;;;;5044435;28;20841;-79
2023/08/30 08:20:43;;;;;;;0.10;0.10;;;17.70;99.90;;;;;;5042124;28;20600;-85
2023/08/30 08:23:08;;;;;;;0.10;0.10;;;17.80;99.90;;;;;;5044970;28;20189;-81
2023/08/30 08:25:34;;;;;;;0.10;0.10;;;18.00;99.90;;;;;;5047933;28;20452;-81
2023/08/30 08:27:59;;;;;;;0.10;0.10;;;18.30;99.90;;;;;;5048555;28;20666;-83
2023/08/30 08:30:25;;;;;;;0.10;0.10;;;18.30;99.90;;;;;;5046082;28;20195;-81
2023/08/30 08:32:50;;;;;;;0.10;0.10;;;18.20;99.90;;;;;;5045665;28;20219;-80
2023/08/30 08:35:16;;;;;;;0.10;0.10;;;18.30;99.90;;;;;;5048217;28;20198;-80
2023/08/30 08:37:41;;;;;;;0.10;0.10;;;18.30;99.90;;;;;;5036438;28;20193;-80
2023/08/30 08:40:10;;;;;;;0.10;0.10;;;18.30;99.90;;;;;;5063665;28;20228;-81
2023/08/30 08:42:36;;;;;;;0.10;0.07;;;18.60;99.90;;;;;;5049791;28;20225;-80
2023/08/30 08:45:03;;;;;;;0.10;0.00;;;18.70;99.90;;;;;;5055160;28;20441;-80
2023/08/30 08:47:30;;;;;;;0.10;0.10;;;18.70;99.90;;;;;;5050353;28;20539;-84
2023/08/30 08:49:57;;;;;;;0.10;0.10;;;18.50;99.90;;;;;;5046425;28;20449;-81
2023/08/30 08:52:24;;;;;;;0.10;0.10;;;18.40;99.90;;;;;;5049357;28;20445;-79
2023/08/30 08:54:50;;;;;;;0.10;0.10;;;18.50;99.90;;;;;;5047083;28;20441;-79
2023/08/30 08:57:16;;;;;;;0.10;0.10;;;18.80;99.90;;;;;;5043956;28;20960;-81
2023/08/30 08:59:43;;;;;;;0.10;0.10;;;18.60;99.90;;;;;;5040561;28;20657;-81
2023/08/30 09:02:12;;;;;;;0.10;0.10;;;18.80;99.90;;;;;;5047141;28;20568;-84
2023/08/30 09:04:39;;;;;;;0.10;0.10;;;19.10;99.90;;;;;;5044350;28;20449;-85
2023/08/30 09:07:04;;;;;;;0.10;0.10;;;19.10;99.90;;;;;;5042278;28;20984;-84
2023/08/30 09:09:30;;;;;;;0.10;0.10;;;19.10;99.90;;;;;;5046926;28;20504;-84
2023/08/30 09:11:56;;;;;;;0.10;0.10;;;19.20;99.90;;;;;;5049611;28;20189;-86
2023/08/30 09:14:21;;;;;;;0.10;0.10;;;19.30;99.90;;;;;;5048891;28;20650;-82
2023/08/30 09:17:01;;;;;;;0.10;0.10;;;19.50;99.90;;;;;;5044987;28;20201;-84
2023/08/30 09:19:26;;;;;;;0.10;0.10;;;19.60;99.90;;;;;;5038943;28;20187;-83
2023/08/30 09:21:59;;;;;;;0.10;0.10;;;19.70;99.90;;;;;;5045570;28;20479;-83
2023/08/30 09:24:25;;;;;;;0.10;0.10;;;19.50;99.90;;;;;;5043913;28;20179;-85
2023/08/30 09:26:54;;;;;;;0.10;0.00;;;19.20;99.90;;;;;;5060673;28;20491;-84
2023/08/30 09:29:23;;;;;;;0.10;0.00;;;19.50;99.90;;;;;;5049717;28;20437;-82
2023/08/30 09:31:54;;;;;;;0.10;0.00;;;19.80;99.90;;;;;;5051141;28;20460;-82
2023/08/30 09:34:25;;;;;;;0.10;0.00;;;19.60;99.90;;;;;;5049905;28;21036;-83
2023/08/30 09:36:51;;;;;;;0.10;0.00;;;19.50;99.90;;;;;;5053650;28;20984;-84
2023/08/30 09:39:16;;;;;;;0.10;0.10;;;19.40;99.90;;;;;;5055371;28;20548;-84
2023/08/30 09:41:44;;;;;;;0.10;0.00;;;19.40;99.90;;;;;;5053543;28;21051;-84
2023/08/30 09:44:14;;;;;;;0.00;0.00;;;19.10;99.90;;;;;;5035494;28;20202;-85
2023/08/30 09:46:53;;;;;;;0.00;0.00;;;18.80;99.90;;;;;;5042250;28;20539;-85
2023/08/30 09:49:26;;;;;;;0.00;0.00;;;18.70;99.90;;;;;;5048323;28;20829;-85
2023/08/30 09:51:53;;;;;;;0.00;0.00;;;18.70;99.90;;;;;;5049647;28;20449;-82
2023/08/30 09:54:24;;;;;;;0.10;0.10;;;19.00;99.90;;;;;;5039944;28;20458;-82
2023/08/30 09:56:52;;;;;;;0.10;0.00;;;19.00;99.90;;;;;;5045633;28;20625;-82
2023/08/30 09:59:18;;;;;;;0.10;0.10;;;19.10;99.90;;;;;;5050328;28;20445;-83
2023/08/30 10:01:46;;;;;;;0.10;0.10;;;19.20;99.90;;;;;;5046725;28;20514;-83
2023/08/30 10:04:12;;;;;;;0.10;0.10;;;19.50;99.90;;;;;;5047624;28;20248;-84
2023/08/30 10:06:38;;;;;;;0.10;0.10;;;19.60;99.90;;;;;;5039133;28;20460;-84
2023/08/30 10:09:07;;;;;;;0.10;0.00;;;19.70;99.90;;;;;;5047382;28;20212;-84
2023/08/30 10:11:34;;;;;;;0.10;0.00;;;19.80;99.90;;;;;;5047403;28;20440;-84
2023/08/30 10:14:00;;;;;;;0.10;0.00;;;19.60;99.90;;;;;;5043867;28;20495;-82
2023/08/30 10:16:30;;;;;;;0.10;0.10;;;19.70;99.90;;;;;;5045615;28;20498;-83
2023/08/30 10:19:02;;;;;;;0.10;0.00;;;19.70;99.90;;;;;;5045210;28;20850;-81
2023/08/30 10:21:29;;;;;;;0.07;0.07;;;19.90;99.90;;;;;;5038991;28;20490;-82
2023/08/30 10:23:56;;;;;;;0.03;0.00;;;19.80;99.90;;;;;;5027143;28;20437;-81
2023/08/30 10:26:28;;;;;;;0.00;0.00;;;19.70;99.90;;;;;;5024930;28;20453;-82
2023/08/30 10:28:56;;;;;;;0.10;0.10;;;19.60;99.90;;;;;;5060561;28;20438;-81
2023/08/30 10:31:22;;;;;;;0.10;0.10;;;19.60;99.90;;;;;;5047576;28;20439;-81
2023/08/30 10:33:49;;;;;;;0.10;0.00;;;19.50;99.90;;;;;;5057355;28;20893;-80
2023/08/30 10:36:21;;;;;;;0.10;0.10;;;19.50;99.90;;;;;;5044601;28;20191;-83
2023/08/30 10:38:50;;;;;;;0.10;0.10;;;19.70;99.90;;;;;;5073070;28;20428;-82
2023/08/30 10:41:20;;;;;;;0.10;0.00;;;19.80;99.90;;;;;;5064975;28;20964;-82
2023/08/30 10:43:51;;;;;;;0.10;0.10;;;19.50;99.90;;;;;;5054533;28;20495;-82
2023/08/30 10:46:17;;;;;;;0.10;0.00;;;19.80;99.90;;;;;;5053212;28;20456;-86
2023/08/30 10:48:43;;;;;;;0.10;0.00;;;19.90;99.90;;;;;;5056430;28;20449;-83
2023/08/30 10:51:36;;;;;;;0.10;0.10;;;19.80;99.90;;;;;;5057443;28;20186;-83
2023/08/30 10:54:10;;;;;;;0.10;0.10;;;19.30;99.90;;;;;;5043468;28;20449;-82
2023/08/30 10:56:49;;;;;;;0.10;0.10;;;19.40;99.90;;;;;;5051745;28;20433;-83
2023/08/30 10:59:19;;;;;;;0.10;0.10;;;19.70;99.90;;;;;;5048378;28;20432;-82
2023/08/30 11:01:49;;;;;;;0.10;0.10;;;19.60;99.90;;;;;;5044129;28;20483;-84
2023/08/30 11:04:16;;;;;;;0.00;0.00;;;19.90;99.90;;;;;;5051009;28;20969;-86
2023/08/30 11:06:46;;;;;;;0.00;0.00;;;19.80;99.90;;;;;;5049589;28;21019;-86
2023/08/30 11:09:20;;;;;;;0.10;0.00;;;20.00;99.90;;;;;;5046520;28;20441;-83
2023/08/30 11:11:46;;;;;;;0.10;0.00;;;20.10;99.90;;;;;;5045968;28;20477;-84
2023/08/30 11:14:13;;;;;;;0.10;0.00;;;20.20;99.90;;;;;;5050306;28;20502;-86
2023/08/30 11:16:39;;;;;;;0.10;0.00;;;20.70;99.90;;;;;;5048963;28;20460;-84
2023/08/30 11:19:07;;;;;;;0.10;0.00;;;20.60;99.90;;;;;;5052680;28;20452;-85
2023/08/30 11:21:35;;;;;;;0.10;0.00;;;20.50;99.90;;;;;;5047107;28;20486;-84
2023/08/30 11:24:01;;;;;;;0.00;0.00;;;20.60;99.90;;;;;;5037447;28;20445;-83
2023/08/30 11:26:26;;;;;;;0.00;0.00;;;20.60;99.90;;;;;;5040002;28;20941;-84
2023/08/30 11:28:52;;;;;;;0.10;0.00;;;20.90;99.90;;;;;;5042114;28;20186;-83
2023/08/30 11:31:27;;;;;;;0.00;0.00;;;21.30;99.90;;;;;;5035531;28;20175;-84
2023/08/30 11:33:57;;;;;;;0.10;0.00;;;21.50;99.90;;;;;;5038409;28;20222;-85
2023/08/30 11:36:24;;;;;;;0.10;0.00;;;20.80;99.90;;;;;;5036005;28;20817;-84
2023/08/30 11:38:50;;;;;;;0.10;0.00;;;20.80;99.90;;;;;;5042155;28;20969;-85
2023/08/30 11:41:16;;;;;;;0.10;0.00;;;21.30;99.90;;;;;;5043463;28;20995;-85
2023/08/30 11:43:45;;;;;;;0.10;0.00;;;21.60;99.90;;;;;;5046822;28;20494;-85
2023/08/30 11:46:12;;;;;;;0.10;0.00;;;21.50;99.90;;;;;;5040568;28;20506;-85
2023/08/30 11:48:39;;;;;;;0.10;0.10;;;21.70;99.90;;;;;;5046712;28;20941;-86
2023/08/30 11:51:05;;;;;;;0.10;0.00;;;21.20;99.90;;;;;;5036889;28;20448;-85
2023/08/30 11:53:30;;;;;;;0.10;0.00;;;21.10;99.90;;;;;;5034854;28;20439;-85
2023/08/30 11:55:56;;;;;;;0.10;0.10;;;21.00;99.90;;;;;;5046852;28;20187;-84
2023/08/30 11:58:22;;;;;;;0.10;0.00;;;21.20;99.90;;;;;;5047220;28;20171;-85
2023/08/30 12:00:51;;;;;;;0.10;0.00;;;21.20;99.90;;;;;;5051969;28;20222;-85
2023/08/30 12:03:16;;;;;;;0.10;0.00;;;21.00;99.90;;;;;;5059466;28;20243;-83
2023/08/30 12:05:49;;;;;;;0.10;0.00;;;20.60;99.90;;;;;;5050942;28;20464;-86
2023/08/30 12:08:19;;;;;;;0.10;0.10;;;20.20;99.90;;;;;;5050006;28;20213;-82
2023/08/30 12:10:46;;;;;;;0.10;0.10;;;20.20;99.90;;;;;;5046129;28;20479;-82
2023/08/30 12:13:28;;;;;;;0.10;0.00;;;21.40;99.90;;;;;;5052249;28;20435;-84
2023/08/30 12:15:56;;;;;;;0.10;0.00;;;22.10;99.90;;;;;;5048298;28;20547;-82
2023/08/30 12:18:23;;;;;;;0.10;0.00;;;22.80;99.90;;;;;;5045601;28;20465;-87
2023/08/30 12:20:54;;;;;;;0.10;0.00;;;23.10;99.90;;;;;;5048448;28;20490;-86
2023/08/30 12:23:28;;;;;;;0.10;0.00;;;23.50;99.90;;;;;;5046872;28;20445;-85
2023/08/30 12:26:04;;;;;;;0.10;0.00;;;23.30;99.90;;;;;;5048786;28;20449;-85
2023/08/30 12:28:31;;;;;;;0.10;0.00;;;23.20;99.90;;;;;;5052644;28;20454;-83
2023/08/30 12:30:57;;;;;;;0.10;0.00;;;23.60;99.90;;;;;;5063244;28;21004;-85
2023/08/30 12:33:25;;;;;;;0.10;0.00;;;24.10;99.90;;;;;;5043685;28;20484;-88
2023/08/30 12:35:54;;;;;;;0.10;0.00;;;24.10;99.90;;;;;;5052701;28;20991;-86
2023/08/30 12:38:20;;;;;;;0.10;0.00;;;22.20;99.90;;;;;;5050183;28;20484;-86
2023/08/30 12:40:53;;;;;;;0.00;0.00;;;22.10;99.90;;;;;;5047938;28;20473;-84
2023/08/30 12:43:20;;;;;;;0.00;0.00;;;22.40;99.90;;;;;;5042646;28;20505;-83
2023/08/30 12:45:47;;;;;;;0.00;0.00;;;22.80;99.90;;;;;;5047385;28;20448;-83